createdAt,value
2024-01-20T00:00:02.306Z,101237.00
2024-01-20T00:02:28.960Z,101245.84
2024-01-20T00:04:55.842Z,101242.25
2024-01-20T00:07:22.561Z,101243.97
2024-01-20T00:09:51.434Z,101249.28
2024-01-20T00:12:19.631Z,101244.03
2024-01-20T00:14:47.126Z,101250.25
2024-01-20T00:17:21.483Z,101251.97
2024-01-20T00:19:54.397Z,101259.03
2024-01-20T00:22:22.351Z,101253.72
2024-01-20T00:24:49.590Z,101256.28
2024-01-20T00:27:16.695Z,101249.16
2024-01-20T00:29:43.694Z,101255.44
2024-01-20T00:32:10.925Z,101260.69
2024-01-20T00:34:51.068Z,101273.03
2024-01-20T00:37:24.781Z,101260.59
2024-01-20T00:39:51.556Z,101262.41
2024-01-20T00:42:20.319Z,101260.59
2024-01-20T00:44:47.272Z,101262.34
2024-01-20T00:47:14.141Z,101265.94
2024-01-20T00:49:41.013Z,101265.06
2024-01-20T00:52:10.555Z,101257.03
2024-01-20T00:54:37.302Z,101266.75
2024-01-20T00:57:04.310Z,101270.34
2024-01-20T00:59:31.079Z,101277.31
2024-01-20T01:01:57.830Z,101281.81
2024-01-20T01:04:24.594Z,101280.84
2024-01-20T01:06:51.262Z,101284.37
2024-01-20T01:09:17.874Z,101289.69
2024-01-20T01:11:44.564Z,101283.50
2024-01-20T01:14:14.462Z,101294.16
2024-01-20T01:16:41.314Z,101296.75
2024-01-20T01:19:10.368Z,101299.41
2024-01-20T01:21:36.993Z,101300.38
2024-01-20T01:24:06.902Z,101297.69
2024-01-20T01:26:33.846Z,101303.03
2024-01-20T01:29:00.884Z,101309.22
2024-01-20T01:31:27.857Z,101315.41
2024-01-20T01:33:54.591Z,101321.63
2024-01-20T01:36:21.293Z,101316.19
2024-01-20T01:38:50.439Z,101321.53
2024-01-20T01:41:17.156Z,101322.41
2024-01-20T01:43:43.937Z,101316.16
2024-01-20T01:46:10.620Z,101315.28
2024-01-20T01:48:37.691Z,101317.88
2024-01-20T01:51:05.275Z,101315.28
2024-01-20T01:53:35.037Z,101317.97
2024-01-20T01:56:02.279Z,101317.88
2024-01-20T01:58:33.419Z,101306.34
2024-01-20T02:01:01.272Z,101316.06
2024-01-20T02:03:28.129Z,101315.13
2024-01-20T02:05:54.835Z,101315.13
2024-01-20T02:08:21.713Z,101322.19
2024-01-20T02:10:50.826Z,101323.06
2024-01-20T02:13:17.491Z,101323.12
2024-01-20T02:15:44.271Z,101325.78
2024-01-20T02:18:11.201Z,101336.41
2024-01-20T02:20:38.049Z,101347.84
2024-01-20T02:23:04.828Z,101347.06
2024-01-20T02:25:31.681Z,101345.28
2024-01-20T02:27:58.314Z,101348.81
2024-01-20T02:30:25.092Z,101358.53
2024-01-20T02:32:52.049Z,101366.53
2024-01-20T02:35:20.244Z,101365.59
2024-01-20T02:37:49.662Z,101364.72
2024-01-20T02:40:16.875Z,101369.13
2024-01-20T02:42:43.663Z,101375.38
2024-01-20T02:45:10.717Z,101378.19
2024-01-20T02:47:37.539Z,101382.63
2024-01-20T02:50:04.666Z,101377.28
2024-01-20T02:52:31.356Z,101386.06
2024-01-20T02:54:58.111Z,101383.38
2024-01-20T02:57:25.641Z,101380.62
2024-01-20T02:59:52.771Z,101387.78
2024-01-20T03:02:19.571Z,101384.16
2024-01-20T03:04:46.257Z,101384.16
2024-01-20T03:07:15.315Z,101389.50
2024-01-20T03:09:42.061Z,101386.91
2024-01-20T03:12:08.831Z,101390.41
2024-01-20T03:14:35.968Z,101394.84
2024-01-20T03:17:02.708Z,101387.78
2024-01-20T03:19:29.624Z,101388.72
2024-01-20T03:21:58.729Z,101392.16
2024-01-20T03:24:26.008Z,101403.75
2024-01-20T03:26:56.457Z,101407.25
2024-01-20T03:29:24.722Z,101405.47
2024-01-20T03:31:51.489Z,101408.03
2024-01-20T03:34:18.312Z,101413.37
2024-01-20T03:36:45.143Z,101412.59
2024-01-20T03:39:11.988Z,101409.84
2024-01-20T03:41:38.663Z,101412.53
2024-01-20T03:44:05.378Z,101414.25
2024-01-20T03:46:32.033Z,101416.91
2024-01-20T03:48:59.153Z,101418.62
2024-01-20T03:51:31.690Z,101420.44
2024-01-20T03:53:58.359Z,101418.62
2024-01-20T03:56:25.204Z,101425.78
2024-01-20T03:58:51.859Z,101435.53
2024-01-20T04:01:18.622Z,101437.25
2024-01-20T04:03:45.425Z,101442.59
2024-01-20T04:06:14.288Z,101437.37
2024-01-20T04:08:40.973Z,101442.06
2024-01-20T04:11:07.821Z,101443.22
2024-01-20T04:13:34.548Z,101445.41
2024-01-20T04:16:01.308Z,101442.31
2024-01-20T04:18:28.070Z,101438.41
2024-01-20T04:20:54.945Z,101431.88
2024-01-20T04:23:21.677Z,101428.88
2024-01-20T04:25:48.519Z,101426.72
2024-01-20T04:28:15.277Z,101432.53
2024-01-20T04:30:44.953Z,101436.56
2024-01-20T04:33:11.831Z,101437.88
2024-01-20T04:35:38.593Z,101445.50
2024-01-20T04:38:05.389Z,101460.03
2024-01-20T04:40:32.109Z,101473.75
2024-01-20T04:42:58.829Z,101469.72
2024-01-20T04:45:25.680Z,101484.28
2024-01-20T04:47:52.865Z,101480.22
2024-01-20T04:50:19.641Z,101487.66
2024-01-20T04:52:48.730Z,101495.09
2024-01-20T04:55:15.652Z,101506.09
2024-01-20T04:57:42.325Z,101502.81
2024-01-20T05:00:09.537Z,101508.41
2024-01-20T05:02:38.058Z,101500.81
2024-01-20T05:05:05.518Z,101497.50
2024-01-20T05:07:32.229Z,101498.66
2024-01-20T05:09:59.378Z,101498.03
2024-01-20T05:12:26.782Z,101506.31
2024-01-20T05:14:54.216Z,101509.19
2024-01-20T05:17:21.132Z,101513.03
2024-01-20T05:19:47.903Z,101506.19
2024-01-20T05:22:16.049Z,101509.13
2024-01-20T05:24:42.780Z,101513.78
2024-01-20T05:27:09.434Z,101509.59
2024-01-20T05:29:36.135Z,101512.44
2024-01-20T05:32:02.934Z,101522.41
2024-01-20T05:34:29.720Z,101523.50
2024-01-20T05:36:56.427Z,101536.09
2024-01-20T05:39:23.072Z,101539.84
2024-01-20T05:41:49.772Z,101533.81
2024-01-20T05:44:16.420Z,101538.44
2024-01-20T05:46:43.223Z,101540.38
2024-01-20T05:49:10.586Z,101546.69
2024-01-20T05:51:37.454Z,101543.34
2024-01-20T05:54:04.604Z,101547.00
2024-01-20T05:56:31.331Z,101548.09
2024-01-20T05:58:58.073Z,101567.56
2024-01-20T06:01:24.715Z,101567.66
2024-01-20T06:03:51.534Z,101573.03
2024-01-20T06:06:18.284Z,101581.09
2024-01-20T06:08:44.996Z,101587.25
2024-01-20T06:11:11.801Z,101585.34
2024-01-20T06:13:38.540Z,101589.53
2024-01-20T06:16:08.378Z,101594.53
2024-01-20T06:18:35.117Z,101602.13
2024-01-20T06:21:01.889Z,101599.97
2024-01-20T06:23:29.674Z,101606.50
2024-01-20T06:25:58.008Z,101601.50
2024-01-20T06:28:24.945Z,101607.00
2024-01-20T06:30:51.605Z,101605.38
2024-01-20T06:33:18.409Z,101608.19
2024-01-20T06:35:45.167Z,101610.13
2024-01-20T06:38:11.927Z,101613.72
2024-01-20T06:40:39.081Z,101627.22
2024-01-20T06:43:05.903Z,101623.13
2024-01-20T06:45:34.912Z,101633.34
2024-01-20T06:48:02.876Z,101642.72
2024-01-20T06:50:29.665Z,101639.81
2024-01-20T06:52:56.400Z,101648.50
2024-01-20T06:55:23.162Z,101654.59
2024-01-20T06:57:49.853Z,101666.56
2024-01-20T07:00:16.734Z,101673.34
2024-01-20T07:02:44.415Z,101680.06
2024-01-20T07:05:11.287Z,101678.94
2024-01-20T07:07:39.122Z,101671.72
2024-01-20T07:10:07.570Z,101685.84
2024-01-20T07:12:34.482Z,101698.13
2024-01-20T07:15:03.914Z,101703.50
2024-01-20T07:17:30.573Z,101706.91
2024-01-20T07:19:57.241Z,101709.47
2024-01-20T07:22:23.873Z,101710.94
2024-01-20T07:24:50.580Z,101712.38
2024-01-20T07:27:17.383Z,101710.31
2024-01-20T07:29:44.109Z,101719.84
2024-01-20T07:32:12.403Z,101716.13
2024-01-20T07:34:39.316Z,101718.69
2024-01-20T07:37:06.044Z,101716.91
2024-01-20T07:39:35.106Z,101731.09
2024-01-20T07:42:01.730Z,101732.03
2024-01-20T07:46:54.949Z,101744.41
2024-01-20T07:49:21.728Z,101737.34
2024-01-20T07:51:48.465Z,101739.19
2024-01-20T07:54:17.546Z,101740.88
2024-01-20T07:56:44.397Z,101746.25
2024-01-20T07:59:11.340Z,101745.28
2024-01-20T08:01:38.026Z,101746.16
2024-01-20T08:04:04.896Z,101754.06
2024-01-20T08:06:31.631Z,101748.75
2024-01-20T08:08:58.472Z,101746.03
2024-01-20T08:11:25.314Z,101751.38
2024-01-20T08:13:51.983Z,101758.38
2024-01-20T08:16:18.667Z,101760.13
2024-01-20T08:18:48.417Z,101761.91
2024-01-20T08:21:15.193Z,101755.59
2024-01-20T08:23:42.024Z,101767.06
2024-01-20T08:26:08.654Z,101764.38
2024-01-20T08:28:35.543Z,101767.84
2024-01-20T08:31:02.371Z,101773.09
2024-01-20T08:33:29.344Z,101772.19
2024-01-20T08:35:56.052Z,101773.94
2024-01-20T08:38:22.865Z,101774.72
2024-01-20T08:40:49.709Z,101776.50
2024-01-20T08:43:16.973Z,101780.81
2024-01-20T08:45:44.651Z,101782.53
2024-01-20T08:48:12.412Z,101798.44
2024-01-20T08:50:39.124Z,101793.03
2024-01-20T08:53:05.839Z,101796.53
2024-01-20T08:55:32.456Z,101794.72
2024-01-20T08:57:59.932Z,101791.12
2024-01-20T09:00:26.749Z,101792.81
2024-01-20T09:02:53.530Z,101791.78
2024-01-20T09:05:23.182Z,101803.25
2024-01-20T09:07:50.024Z,101804.09
2024-01-20T09:10:16.646Z,101807.63
2024-01-20T09:12:43.408Z,101807.50
2024-01-20T09:15:11.516Z,101809.13
2024-01-20T09:17:38.509Z,101807.25
2024-01-20T09:20:05.844Z,101814.22
2024-01-20T09:22:35.541Z,101810.47
2024-01-20T09:25:02.935Z,101799.66
2024-01-20T09:27:29.587Z,101805.69
2024-01-20T09:29:57.571Z,101804.69
2024-01-20T09:32:24.832Z,101802.63
2024-01-20T09:34:51.562Z,101807.88
2024-01-20T09:37:18.290Z,101804.16
2024-01-20T09:39:45.945Z,101802.03
2024-01-20T09:42:12.799Z,101806.28
2024-01-20T09:44:39.572Z,101802.63
2024-01-20T09:47:09.941Z,101800.63
2024-01-20T09:49:36.645Z,101801.22
2024-01-20T09:52:15.893Z,101806.44
2024-01-20T09:55:24.832Z,101802.50
2024-01-20T09:57:51.822Z,101798.69
2024-01-20T10:00:19.106Z,101794.16
2024-01-20T10:02:48.419Z,101796.59
2024-01-20T10:05:15.563Z,101784.84
2024-01-20T10:07:42.682Z,101782.84
2024-01-20T10:10:12.854Z,101782.72
2024-01-20T10:12:39.592Z,101779.13
2024-01-20T10:15:06.915Z,101787.13
2024-01-20T10:17:39.820Z,101786.28
2024-01-20T10:20:06.838Z,101781.84
2024-01-20T10:22:33.567Z,101780.97
2024-01-20T10:25:00.456Z,101771.22
2024-01-20T10:27:28.694Z,101785.47
2024-01-20T10:29:55.415Z,101784.59
2024-01-20T10:32:22.077Z,101789.06
2024-01-20T10:34:49.220Z,101777.44
2024-01-20T10:37:16.026Z,101781.09
2024-01-20T10:39:46.142Z,101781.91
2024-01-20T10:42:16.698Z,101770.38
2024-01-20T10:44:51.392Z,101766.81
2024-01-20T10:47:23.471Z,101771.28
2024-01-20T10:49:51.148Z,101779.37
2024-01-20T10:52:18.203Z,101779.37
2024-01-20T10:54:45.150Z,101773.09
2024-01-20T10:57:12.144Z,101778.44
2024-01-20T10:59:42.017Z,101776.78
2024-01-20T11:02:12.239Z,101783.00
2024-01-20T11:04:41.649Z,101783.03
2024-01-20T11:07:09.620Z,101791.06
2024-01-20T11:09:42.421Z,101779.50
2024-01-20T11:12:09.288Z,101778.59
2024-01-20T11:14:36.142Z,101781.31
2024-01-20T11:17:13.997Z,101778.59
2024-01-20T11:19:40.781Z,101772.31
2024-01-20T11:22:33.892Z,101783.97
2024-01-20T11:25:06.023Z,101788.47
2024-01-20T11:27:33.083Z,101791.00
2024-01-20T11:30:07.491Z,101785.72
2024-01-20T11:32:34.802Z,101792.87
2024-01-20T11:35:01.866Z,101786.72
2024-01-20T11:37:28.779Z,101780.53
2024-01-20T11:40:11.261Z,101784.12
2024-01-20T11:42:39.393Z,101788.75
2024-01-20T11:45:06.746Z,101783.41
2024-01-20T11:47:33.422Z,101772.78
2024-01-20T11:50:00.388Z,101760.50
2024-01-20T11:52:27.153Z,101758.69
2024-01-20T11:54:53.894Z,101766.72
2024-01-20T11:57:20.791Z,101764.09
2024-01-20T11:59:47.595Z,101774.72
2024-01-20T12:02:14.171Z,101773.03
2024-01-20T12:04:40.889Z,101773.13
2024-01-20T12:07:07.625Z,101775.87
2024-01-20T12:09:34.830Z,101773.25
2024-01-20T12:12:02.343Z,101767.12
2024-01-20T12:14:29.131Z,101760.03
2024-01-20T12:16:56.357Z,101761.84
2024-01-20T12:19:23.188Z,101749.47
2024-01-20T12:21:50.665Z,101754.91
2024-01-20T12:24:18.284Z,101746.03
2024-01-20T12:26:44.939Z,101741.59
2024-01-20T12:29:11.956Z,101738.06
2024-01-20T12:31:38.658Z,101734.53
2024-01-20T12:34:05.548Z,101739.00
2024-01-20T12:36:33.122Z,101734.66
2024-01-20T12:39:00.278Z,101740.94
2024-01-20T12:41:28.010Z,101740.00
2024-01-20T12:43:54.661Z,101741.78
2024-01-20T12:46:21.441Z,101734.81
2024-01-20T12:48:48.208Z,101735.75
2024-01-20T12:51:15.031Z,101735.75
2024-01-20T12:53:41.779Z,101729.59
2024-01-20T12:56:08.371Z,101734.13
2024-01-20T12:58:35.149Z,101735.09
2024-01-20T13:01:02.043Z,101733.31
2024-01-20T13:03:29.619Z,101742.28
2024-01-20T13:05:56.435Z,101738.75
2024-01-20T13:08:23.192Z,101750.38
2024-01-20T13:10:51.381Z,101750.38
2024-01-20T13:13:19.147Z,101752.16
2024-01-20T13:15:46.002Z,101750.41
2024-01-20T13:18:12.760Z,101749.50
2024-01-20T13:20:39.877Z,101748.63
2024-01-20T13:23:08.596Z,101747.72
2024-01-20T13:25:35.487Z,101746.88
2024-01-20T13:28:02.163Z,101751.34
2024-01-20T13:30:28.801Z,101758.56
2024-01-20T13:32:55.669Z,101773.72
2024-01-20T13:35:22.385Z,101768.50
2024-01-20T13:37:49.232Z,101776.72
2024-01-20T13:40:16.025Z,101773.22
2024-01-20T13:42:43.808Z,101775.22
2024-01-20T13:45:10.830Z,101781.47
2024-01-20T13:47:38.328Z,101777.22
2024-01-20T13:50:06.562Z,101771.12
2024-01-20T13:52:33.458Z,101780.19
2024-01-20T13:55:00.209Z,101779.37
2024-01-20T13:57:26.917Z,101792.78
2024-01-20T13:59:53.687Z,101793.78
2024-01-20T14:02:20.354Z,101796.50
2024-01-20T14:04:47.037Z,101801.06
2024-01-20T14:07:13.943Z,101807.38
2024-01-20T14:09:40.618Z,101806.50
2024-01-20T14:12:07.858Z,101803.91
2024-01-20T14:14:35.473Z,101799.53
2024-01-20T14:17:03.680Z,101799.53
2024-01-20T14:19:30.469Z,101801.41
2024-01-20T14:21:57.254Z,101803.25
2024-01-20T14:24:23.946Z,101802.41
2024-01-20T14:26:53.060Z,101803.25
2024-01-20T14:29:20.096Z,101801.53
2024-01-20T14:31:48.058Z,101803.34
2024-01-20T14:34:15.219Z,101809.59
2024-01-20T14:36:46.936Z,101808.66
2024-01-20T14:39:20.482Z,101807.81
2024-01-20T14:41:47.248Z,101805.12
2024-01-20T14:44:14.110Z,101793.53
2024-01-20T14:46:40.793Z,101807.81
2024-01-20T14:49:08.774Z,101804.34
2024-01-20T14:51:35.823Z,101811.47
2024-01-20T14:54:02.813Z,101813.25
2024-01-20T14:56:36.868Z,101809.72
2024-01-20T14:59:04.584Z,101811.53
2024-01-20T15:01:32.118Z,101817.72
2024-01-20T15:03:59.008Z,101813.25
2024-01-20T15:06:26.686Z,101815.19
2024-01-20T15:08:53.976Z,101811.59
2024-01-20T15:11:20.689Z,101808.94
2024-01-20T15:13:47.961Z,101810.75
2024-01-20T15:16:14.726Z,101817.91
2024-01-20T15:18:41.482Z,101813.44
2024-01-20T15:21:08.472Z,101813.50
2024-01-20T15:23:35.160Z,101829.50
2024-01-20T15:26:01.816Z,101836.66
2024-01-20T15:28:28.714Z,101830.37
2024-01-20T15:30:55.458Z,101832.19
2024-01-20T15:33:22.759Z,101826.84
2024-01-20T15:35:49.566Z,101832.19
2024-01-20T15:38:16.623Z,101840.25
2024-01-20T15:40:44.159Z,101835.78
2024-01-20T15:43:10.787Z,101829.63
2024-01-20T15:45:37.595Z,101832.28
2024-01-20T15:48:05.940Z,101839.38
2024-01-20T15:50:32.739Z,101832.34
2024-01-20T15:52:59.436Z,101837.69
2024-01-20T15:55:26.178Z,101845.69
2024-01-20T15:57:53.194Z,101841.38
2024-01-20T16:00:20.068Z,101844.94
2024-01-20T16:02:46.747Z,101845.84
2024-01-20T16:05:13.499Z,101844.06
2024-01-20T16:07:40.206Z,101839.66
2024-01-20T16:10:07.273Z,101839.75
2024-01-20T16:12:34.053Z,101839.78
2024-01-20T16:15:00.966Z,101841.59
2024-01-20T16:17:27.816Z,101849.59
2024-01-20T16:19:54.532Z,101846.13
2024-01-20T16:22:21.245Z,101847.06
2024-01-20T16:24:47.960Z,101845.25
2024-01-20T16:27:14.825Z,101855.06
2024-01-20T16:29:41.504Z,101852.38
2024-01-20T16:32:10.721Z,101849.72
2024-01-20T16:34:38.076Z,101854.19
2024-01-20T16:37:05.268Z,101855.06
2024-01-20T16:39:32.811Z,101858.59
2024-01-20T16:41:59.494Z,101863.94
2024-01-20T16:44:27.170Z,101856.94
2024-01-20T16:46:53.971Z,101856.06
2024-01-20T16:49:21.236Z,101855.19
2024-01-20T16:51:48.450Z,101858.72
2024-01-20T16:54:15.215Z,101859.66
2024-01-20T16:56:42.193Z,101860.63
2024-01-20T16:59:09.827Z,101854.44
2024-01-20T17:01:36.975Z,101854.44
2024-01-20T17:04:04.667Z,101856.25
2024-01-20T17:06:33.430Z,101866.06
2024-01-20T17:09:00.593Z,101863.47
2024-01-20T17:11:27.265Z,101872.34
2024-01-20T17:13:53.905Z,101876.81
2024-01-20T17:16:21.214Z,101866.25
2024-01-20T17:18:48.037Z,101876.91
2024-01-20T17:21:18.185Z,101879.56
2024-01-20T17:23:45.009Z,101884.91
2024-01-20T17:26:12.028Z,101882.31
2024-01-20T17:28:38.811Z,101885.91
2024-01-20T17:31:05.843Z,101883.34
2024-01-20T17:33:32.792Z,101893.12
2024-01-20T17:35:59.444Z,101898.44
2024-01-20T17:38:26.201Z,101901.13
2024-01-20T17:40:53.110Z,101898.47
2024-01-20T17:43:19.786Z,101894.94
2024-01-20T17:45:52.294Z,101907.41
2024-01-20T17:48:21.206Z,101912.81
2024-01-20T17:50:50.156Z,101915.41
2024-01-20T17:53:19.478Z,101918.06
2024-01-20T17:55:46.229Z,101911.81
2024-01-20T17:58:12.849Z,101911.81
2024-01-20T18:00:39.905Z,101910.84
2024-01-20T18:03:06.735Z,101902.78
2024-01-20T18:05:33.603Z,101908.69
2024-01-20T18:08:00.253Z,101904.87
2024-01-20T18:10:26.899Z,101914.47
2024-01-20T18:12:53.514Z,101903.69
2024-01-20T18:15:20.293Z,101900.09
2024-01-20T18:17:47.690Z,101895.63
2024-01-20T18:20:14.473Z,101899.13
2024-01-20T18:22:41.188Z,101896.50
2024-01-20T18:25:08.172Z,101897.41
2024-01-20T18:27:35.087Z,101900.16
2024-01-20T18:30:01.976Z,101911.75
2024-01-20T18:32:29.065Z,101918.03
2024-01-20T18:34:55.854Z,101923.38
2024-01-20T18:37:23.701Z,101927.00
2024-01-20T18:39:50.659Z,101934.13
2024-01-20T18:42:20.608Z,101934.19
2024-01-20T18:44:48.560Z,101936.94
2024-01-20T18:47:15.842Z,101946.72
2024-01-20T18:49:42.771Z,101947.69
2024-01-20T18:52:10.348Z,101962.84
2024-01-20T18:54:42.522Z,101958.44
2024-01-20T18:57:09.383Z,101962.03
2024-01-20T18:59:36.124Z,101958.53
2024-01-20T19:02:02.764Z,101962.06
2024-01-20T19:04:29.542Z,101965.66
2024-01-20T19:06:56.674Z,101962.13
2024-01-20T19:09:23.382Z,101958.59
2024-01-20T19:11:50.277Z,101962.13
2024-01-20T19:14:16.920Z,101967.56
2024-01-20T19:19:10.960Z,101970.22
2024-01-20T19:24:04.777Z,101972.16
2024-01-20T19:26:31.434Z,101972.09
2024-01-20T19:28:58.038Z,101965.03
2024-01-20T19:31:24.681Z,101968.63
2024-01-20T19:33:54.361Z,101977.53
2024-01-20T19:36:23.255Z,101971.31
2024-01-20T19:38:51.942Z,101966.88
2024-01-20T19:41:19.031Z,101969.59
2024-01-20T19:43:45.879Z,101960.72
2024-01-20T19:46:12.694Z,101960.78
2024-01-20T19:48:39.424Z,101967.00
2024-01-20T19:51:06.283Z,101961.66
2024-01-20T19:53:33.029Z,101959.84
2024-01-20T19:55:59.652Z,101958.87
2024-01-20T19:58:26.634Z,101952.63
2024-01-20T20:00:53.515Z,101954.31
2024-01-20T20:03:20.478Z,101954.19
2024-01-20T20:05:47.360Z,101953.28
2024-01-20T20:08:15.729Z,101961.16
2024-01-20T20:10:45.319Z,101959.31
2024-01-20T20:13:11.932Z,101959.22
2024-01-20T20:15:38.784Z,101960.06
2024-01-20T20:18:05.700Z,101958.28
2024-01-20T20:20:32.514Z,101959.13
2024-01-20T20:22:59.197Z,101960.00
2024-01-20T20:25:26.282Z,101962.59
2024-01-20T20:27:52.969Z,101969.75
2024-01-20T20:30:19.985Z,101960.81
2024-01-20T20:32:46.885Z,101959.88
2024-01-20T20:35:15.025Z,101966.03
2024-01-20T20:37:44.737Z,101964.16
2024-01-20T20:40:11.886Z,101957.97
2024-01-20T20:42:38.601Z,101962.37
2024-01-20T20:45:08.632Z,101957.91
2024-01-20T20:47:35.674Z,101960.56
2024-01-20T20:50:05.054Z,101964.16
2024-01-20T20:52:31.713Z,101956.16
2024-01-20T20:54:58.373Z,101957.91
2024-01-20T20:57:25.311Z,101956.09
2024-01-20T20:59:52.911Z,101957.91
2024-01-20T21:02:19.730Z,101962.31
2024-01-20T21:04:46.423Z,101956.97
2024-01-20T21:07:13.756Z,101962.25
2024-01-20T21:09:43.081Z,101956.06
2024-01-20T21:12:12.207Z,101964.97
2024-01-20T21:14:40.168Z,101961.41
2024-01-20T21:17:08.201Z,101965.81
2024-01-20T21:19:35.037Z,101957.88
2024-01-20T21:22:01.964Z,101966.72
2024-01-20T21:24:30.085Z,101967.62
2024-01-20T21:26:56.817Z,101969.44
2024-01-20T21:29:23.744Z,101972.09
2024-01-20T21:31:50.359Z,101976.56
2024-01-20T21:34:17.122Z,101980.09
2024-01-20T21:36:43.904Z,101978.31
2024-01-20T21:39:11.075Z,101988.06
2024-01-20T21:41:38.069Z,101991.53
2024-01-20T21:44:04.897Z,101991.59
2024-01-20T21:46:31.647Z,101993.28
2024-01-20T21:48:58.428Z,101990.69
2024-01-20T21:51:25.129Z,101995.94
2024-01-20T21:53:51.767Z,101999.53
2024-01-20T21:56:18.508Z,102002.22
2024-01-20T21:58:45.239Z,101999.53
2024-01-20T22:01:12.080Z,101993.34
2024-01-20T22:03:38.882Z,101992.34
2024-01-20T22:06:06.002Z,102000.41
2024-01-20T22:08:32.757Z,102003.94
2024-01-20T22:10:59.442Z,102006.63
2024-01-20T22:13:28.022Z,102008.34
2024-01-20T22:15:54.879Z,102004.81
2024-01-20T22:18:21.778Z,102004.88
2024-01-20T22:20:48.569Z,102006.63
2024-01-20T22:23:15.195Z,102004.81
2024-01-20T22:25:41.877Z,102003.94
2024-01-20T22:28:08.570Z,102006.63
2024-01-20T22:30:35.246Z,102003.00
2024-01-20T22:33:02.273Z,101987.91
2024-01-20T22:35:30.852Z,101994.09
2024-01-20T22:37:57.780Z,101991.44
2024-01-20T22:40:26.277Z,101992.34
2024-01-20T22:42:53.020Z,101992.34
2024-01-20T22:45:20.053Z,101991.44
2024-01-20T22:47:48.552Z,101995.00
2024-01-20T22:50:15.503Z,101993.25
2024-01-20T22:52:42.419Z,101997.62
2024-01-20T22:55:09.501Z,102000.31
2024-01-20T22:57:37.587Z,101996.78
2024-01-20T23:00:05.006Z,101994.97
2024-01-20T23:02:31.653Z,101986.97
2024-01-20T23:04:58.448Z,101990.56
2024-01-20T23:07:25.129Z,101998.56
2024-01-20T23:09:52.145Z,101988.78
2024-01-20T23:12:20.713Z,101995.00
2024-01-20T23:14:47.719Z,101988.78
2024-01-20T23:17:16.870Z,101995.91
2024-01-20T23:19:43.597Z,101990.50
2024-01-20T23:22:10.514Z,101993.19
2024-01-20T23:24:37.228Z,101990.50
2024-01-20T23:27:04.190Z,101993.19
2024-01-20T23:29:31.030Z,101989.56
2024-01-20T23:31:57.710Z,101993.19
2024-01-20T23:34:24.496Z,101995.84
2024-01-20T23:36:51.303Z,101991.38
2024-01-20T23:39:18.106Z,101994.03
2024-01-20T23:41:44.852Z,101996.72
2024-01-20T23:44:11.573Z,101990.50
2024-01-20T23:46:38.272Z,101984.25
2024-01-20T23:49:05.021Z,101988.72
2024-01-20T23:51:31.677Z,101986.91
2024-01-20T23:53:58.420Z,101989.56
2024-01-20T23:56:25.081Z,101992.31
2024-01-20T23:58:51.833Z,101989.63
